This is the latest recevied weather packets stored in our database for station/object G8PZT. If no packets are shown the sender has not sent any weather packets the latest 10 day(s).
| Time | Temp. | Humidity | Pressure | Rain* | Wind** | Luminosity | Snow |
|---|---|---|---|---|---|---|---|
| 1777533602 | 14.44° C | 23% | - | 0 mm | - | - | - |
| 1777533111 | 13.89° C | 24% | - | 0 mm | - | - | - |
| 1777532403 | 13.33° C | 24% | - | 0 mm | - | - | - |
| 1777531911 | 13.33° C | 25% | - | 0 mm | - | - | - |
| 1777531311 | 12.22° C | 29% | - | 0 mm | - | - | - |
| 1777531202 | 12.22° C | 29% | - | 0 mm | - | - | - |
| 1777530710 | 11.67° C | 31% | - | 0 mm | - | - | - |
| 1777530110 | 11.11° C | 40% | - | 0 mm | - | - | - |
| 1777530003 | 10.56° C | 41% | - | 0 mm | - | - | - |
| 1777529510 | 9.44° C | 53% | - | 0 mm | - | - | - |
| 1777528911 | 7.22° C | 64% | - | 0 mm | - | - | - |
| 1777528803 | 7.22° C | 64% | - | 0 mm | - | - | - |
| 1777528311 | 6.11° C | 65% | - | 0 mm | - | - | - |
| 1777527711 | 5° C | 65% | - | 0 mm | - | - | - |
| 1777527602 | 5° C | 65% | - | 0 mm | - | - | - |
| 1777527111 | 5° C | 64% | - | 0 mm | - | - | - |
| 1777526511 | 5° C | 64% | - | 0 mm | - | - | - |
| 1777526403 | 5° C | 64% | - | 0 mm | - | - | - |
| 1777525911 | 5° C | 63% | - | 0 mm | - | - | - |
| 1777525312 | 5° C | 63% | - | 0 mm | - | - | - |
| 1777525203 | 5° C | 63% | - | 0 mm | - | - | - |
| 1777524711 | 5° C | 63% | - | 0 mm | - | - | - |
| 1777524111 | 5° C | 63% | - | 0 mm | - | - | - |
| 1777524004 | 5° C | 63% | - | 0 mm | - | - | - |
| 1777523511 | 5° C | 63% | - | 0 mm | - | - | - |
* Rain latest hour (hover to see other rain measurements)
** Current wind speed in m/s (hover to see current wind gust speed)